createdAt,value
2023-02-27T00:07:01.252Z,3.9
2023-02-27T00:14:33.628Z,3.9
2023-02-27T00:22:05.942Z,3.9
2023-02-27T00:29:38.252Z,3.9
2023-02-27T00:37:10.633Z,3.9
2023-02-27T00:44:42.964Z,3.9
2023-02-27T00:52:15.302Z,3.9
2023-02-27T00:59:47.618Z,3.9
2023-02-27T01:07:20.378Z,3.9
2023-02-27T01:14:52.930Z,3.9
2023-02-27T01:22:25.244Z,3.9
2023-02-27T01:29:57.606Z,3.9
2023-02-27T01:37:29.943Z,3.9
2023-02-27T01:45:02.247Z,3.9
2023-02-27T01:52:34.565Z,3.9
2023-02-27T02:00:06.893Z,3.9
2023-02-27T02:07:39.194Z,3.9
2023-02-27T02:15:11.514Z,3.9
2023-02-27T02:22:43.819Z,3.9
2023-02-27T02:30:16.149Z,3.9
2023-02-27T02:37:48.453Z,3.9
2023-02-27T02:45:20.820Z,3.9
2023-02-27T02:52:53.136Z,3.9
2023-02-27T03:00:25.445Z,3.9
2023-02-27T03:07:57.759Z,3.9
2023-02-27T03:15:30.153Z,3.9
2023-02-27T03:23:02.528Z,3.9
2023-02-27T03:30:34.857Z,3.9
2023-02-27T03:38:07.223Z,3.9
2023-02-27T03:45:39.536Z,3.9
2023-02-27T03:53:11.843Z,3.9
2023-02-27T04:00:44.167Z,3.9
2023-02-27T04:08:16.499Z,3.9
2023-02-27T04:15:48.893Z,3.9
2023-02-27T04:23:21.212Z,3.9
2023-02-27T04:30:53.592Z,3.9
2023-02-27T04:38:25.940Z,3.9
2023-02-27T04:45:58.269Z,3.9
2023-02-27T04:53:30.618Z,3.9
2023-02-27T05:01:02.928Z,3.9
2023-02-27T05:08:35.274Z,3.9
2023-02-27T05:16:07.659Z,52.6
2023-02-27T05:16:55.058Z,52.3
2023-02-27T05:17:42.441Z,51.5
2023-02-27T05:18:29.765Z,51.6
2023-02-27T05:19:17.328Z,51.4
2023-02-27T05:20:04.650Z,51.3
2023-02-27T05:20:51.972Z,51.3
2023-02-27T05:21:39.310Z,51.4
2023-02-27T05:22:26.706Z,51.6
2023-02-27T05:23:14.004Z,51.8
2023-02-27T05:24:01.330Z,51.5
2023-02-27T05:24:48.747Z,51.7
2023-02-27T05:25:36.068Z,51.7
2023-02-27T05:26:23.384Z,51.6
2023-02-27T05:27:10.845Z,51.9
2023-02-27T05:27:58.175Z,51.6
2023-02-27T05:28:45.509Z,51.8
2023-02-27T05:29:32.949Z,51.5
2023-02-27T05:30:20.271Z,51.3
2023-02-27T05:31:07.590Z,51.3
2023-02-27T05:31:55.135Z,51.5
2023-02-27T05:32:42.507Z,50.5
2023-02-27T05:33:29.847Z,50.9
2023-02-27T05:34:17.280Z,51.2
2023-02-27T05:35:04.574Z,50.7
2023-02-27T05:35:51.919Z,51.0
2023-02-27T05:36:39.347Z,50.3
2023-02-27T05:37:26.709Z,52.7
2023-02-27T05:38:14.027Z,53.5
2023-02-27T05:39:01.508Z,53.1
2023-02-27T05:39:48.826Z,53.2
2023-02-27T05:40:36.164Z,53.6
2023-02-27T05:41:23.581Z,53.3
2023-02-27T05:42:10.885Z,53.2
2023-02-27T05:42:58.212Z,53.5
2023-02-27T05:43:45.633Z,53.3
2023-02-27T05:44:32.948Z,53.3
2023-02-27T05:45:20.300Z,53.6
2023-02-27T05:46:07.781Z,53.2
2023-02-27T05:46:55.120Z,53.1
2023-02-27T05:47:42.426Z,53.2
2023-02-27T05:48:30.115Z,53.3
2023-02-27T05:49:17.591Z,53.2
2023-02-27T05:50:04.935Z,53.5
2023-02-27T05:50:52.351Z,53.5
2023-02-27T05:51:39.672Z,53.3
2023-02-27T05:52:27.113Z,53.5
2023-02-27T05:53:14.421Z,53.6
2023-02-27T05:54:01.735Z,53.0
2023-02-27T05:54:49.046Z,53.4
2023-02-27T05:55:36.452Z,53.5
2023-02-27T05:56:23.771Z,53.2
2023-02-27T05:57:11.082Z,53.3
2023-02-27T05:57:58.486Z,53.2
2023-02-27T05:58:45.826Z,53.9
2023-02-27T05:59:33.168Z,54.1
2023-02-27T06:00:20.576Z,53.7
2023-02-27T06:01:07.937Z,53.8
2023-02-27T06:01:55.305Z,54.1
2023-02-27T06:02:42.689Z,53.9
2023-02-27T06:03:30.101Z,53.6
2023-02-27T06:04:17.454Z,53.8
2023-02-27T06:05:05.055Z,53.4
2023-02-27T06:05:52.416Z,53.4
2023-02-27T06:06:39.804Z,53.7
2023-02-27T06:07:27.408Z,53.4
2023-02-27T06:08:14.750Z,53.4
2023-02-27T06:09:02.074Z,53.6
2023-02-27T06:09:49.461Z,53.6
2023-02-27T06:10:36.949Z,53.7
2023-02-27T06:11:24.302Z,53.3
2023-02-27T06:12:11.693Z,53.8
2023-02-27T06:12:59.051Z,53.7
2023-02-27T06:13:46.384Z,54.1
2023-02-27T06:14:33.784Z,53.9
2023-02-27T06:15:21.180Z,54.1
2023-02-27T06:16:08.494Z,53.8
2023-02-27T06:16:55.958Z,53.8
2023-02-27T06:17:43.310Z,53.8
2023-02-27T06:18:30.641Z,53.5
2023-02-27T06:19:18.085Z,53.8
2023-02-27T06:20:05.412Z,53.8
2023-02-27T06:20:52.743Z,56.2
2023-02-27T06:21:40.179Z,56.5
2023-02-27T06:22:27.711Z,55.7
2023-02-27T06:23:15.037Z,55.8
2023-02-27T06:24:02.541Z,56.2
2023-02-27T06:24:50.178Z,56.3
2023-02-27T06:25:38.572Z,53.9
2023-02-27T06:26:26.310Z,54.0
2023-02-27T06:27:13.792Z,52.4
2023-02-27T06:28:01.208Z,51.7
2023-02-27T06:28:48.528Z,52.0
2023-02-27T06:29:35.842Z,52.1
2023-02-27T06:30:23.191Z,52.2
2023-02-27T06:31:10.593Z,51.9
2023-02-27T06:31:58.006Z,55.2
2023-02-27T06:32:45.342Z,55.2
2023-02-27T06:33:32.669Z,55.4
2023-02-27T06:34:19.976Z,55.1
2023-02-27T06:35:07.328Z,54.9
2023-02-27T06:35:54.706Z,55.1
2023-02-27T06:36:42.048Z,55.3
2023-02-27T06:37:29.396Z,55.4
2023-02-27T06:38:16.710Z,55.0
2023-02-27T06:39:04.057Z,55.2
2023-02-27T06:39:51.405Z,55.6
2023-02-27T06:40:38.747Z,55.2
2023-02-27T06:41:26.080Z,55.5
2023-02-27T06:42:13.404Z,55.6
2023-02-27T06:43:00.740Z,55.3
2023-02-27T06:43:48.251Z,55.4
2023-02-27T06:44:35.569Z,55.5
2023-02-27T06:45:22.919Z,55.4
2023-02-27T06:46:10.315Z,54.8
2023-02-27T06:46:57.674Z,55.2
2023-02-27T06:47:45.023Z,55.4
2023-02-27T06:48:32.354Z,55.1
2023-02-27T06:49:19.681Z,55.1
2023-02-27T06:50:07.008Z,55.6
2023-02-27T06:50:54.323Z,55.1
2023-02-27T06:51:43.190Z,55.4
2023-02-27T06:52:31.532Z,55.8
2023-02-27T06:53:19.039Z,55.3
2023-02-27T06:54:06.380Z,55.0
2023-02-27T06:54:53.792Z,55.2
2023-02-27T06:55:41.130Z,54.9
2023-02-27T06:56:28.717Z,55.3
2023-02-27T06:57:16.202Z,55.3
2023-02-27T06:58:03.587Z,55.2
2023-02-27T06:58:50.908Z,54.8
2023-02-27T06:59:38.267Z,55.4
2023-02-27T07:00:26.028Z,55.4
2023-02-27T07:01:13.431Z,55.1
2023-02-27T07:02:00.839Z,55.3
2023-02-27T07:02:48.156Z,54.9
2023-02-27T07:03:35.466Z,55.3
2023-02-27T07:04:22.920Z,55.8
2023-02-27T07:05:10.257Z,55.9
2023-02-27T07:05:57.567Z,55.2
2023-02-27T07:07:34.079Z,55.9
2023-02-27T07:07:42.173Z,55.8
2023-02-27T07:08:29.574Z,55.9
2023-02-27T07:09:16.900Z,56.0
2023-02-27T07:10:04.214Z,56.0
2023-02-27T07:10:51.646Z,56.3
2023-02-27T07:11:38.943Z,56.1
2023-02-27T07:12:26.725Z,55.6
2023-02-27T07:13:16.822Z,55.7
2023-02-27T07:14:05.224Z,56.0
2023-02-27T07:14:52.538Z,55.7
2023-02-27T07:15:39.914Z,55.8
2023-02-27T07:16:27.484Z,55.8
2023-02-27T07:17:15.665Z,55.5
2023-02-27T07:18:02.992Z,56.2
2023-02-27T07:18:50.338Z,56.1
2023-02-27T07:19:37.659Z,56.2
2023-02-27T07:20:25.135Z,56.5
2023-02-27T07:21:12.413Z,56.2
2023-02-27T07:21:59.854Z,55.7
2023-02-27T07:22:47.175Z,56.1
2023-02-27T07:23:34.508Z,56.3
2023-02-27T07:24:21.833Z,56.2
2023-02-27T07:25:09.266Z,56.4
2023-02-27T07:25:56.578Z,56.1
2023-02-27T07:26:43.885Z,56.3
2023-02-27T07:27:31.375Z,56.6
2023-02-27T07:28:18.826Z,55.9
2023-02-27T07:29:06.205Z,56.1
2023-02-27T07:29:53.650Z,56.3
2023-02-27T07:30:40.983Z,55.8
2023-02-27T07:31:29.101Z,55.6
2023-02-27T07:32:16.593Z,56.4
2023-02-27T07:33:04.084Z,56.2
2023-02-27T07:33:51.478Z,56.6
2023-02-27T07:34:39.014Z,56.4
2023-02-27T07:35:26.596Z,56.4
2023-02-27T07:36:14.046Z,56.5
2023-02-27T07:37:02.153Z,56.3
2023-02-27T07:37:49.695Z,56.3
2023-02-27T07:38:37.045Z,56.2
2023-02-27T07:39:24.450Z,56.1
2023-02-27T07:40:11.909Z,56.2
2023-02-27T07:40:59.268Z,56.7
2023-02-27T07:41:46.984Z,56.7
2023-02-27T07:42:34.316Z,56.8
2023-02-27T07:43:21.726Z,56.4
2023-02-27T07:44:09.029Z,56.7
2023-02-27T07:44:56.389Z,56.2
2023-02-27T07:45:43.775Z,56.6
2023-02-27T07:46:31.437Z,56.2
2023-02-27T07:47:18.965Z,56.2
2023-02-27T07:48:06.384Z,56.6
2023-02-27T07:48:53.721Z,57.1
2023-02-27T07:49:41.517Z,56.7
2023-02-27T07:50:28.854Z,56.6
2023-02-27T07:51:16.177Z,57.0
2023-02-27T07:52:03.523Z,57.0
2023-02-27T07:52:50.887Z,57.3
2023-02-27T07:53:38.678Z,57.2
2023-02-27T07:54:26.072Z,57.4
2023-02-27T07:55:13.506Z,57.1
2023-02-27T07:56:01.257Z,57.2
2023-02-27T07:56:48.578Z,55.9
2023-02-27T07:57:35.936Z,56.3
2023-02-27T07:58:23.269Z,56.2
2023-02-27T07:59:10.584Z,56.1
2023-02-27T07:59:58.425Z,56.7
2023-02-27T08:00:45.921Z,56.7
2023-02-27T08:01:33.262Z,56.5
2023-02-27T08:02:20.774Z,56.2
2023-02-27T08:03:08.152Z,56.5
2023-02-27T08:03:55.485Z,56.2
2023-02-27T08:04:42.848Z,55.7
2023-02-27T08:05:30.264Z,56.5
2023-02-27T08:06:17.587Z,56.5
2023-02-27T08:07:05.126Z,56.4
2023-02-27T08:07:52.452Z,55.9
2023-02-27T08:08:39.801Z,56.3
2023-02-27T08:09:27.125Z,55.8
2023-02-27T08:10:14.440Z,55.7
2023-02-27T08:11:01.862Z,55.5
2023-02-27T08:11:49.402Z,56.0
2023-02-27T08:12:36.820Z,55.8
2023-02-27T08:13:55.747Z,55.7
2023-02-27T08:14:21.516Z,55.6
2023-02-27T08:15:08.851Z,56.1
2023-02-27T08:15:56.212Z,56.2
2023-02-27T08:16:43.572Z,56.0
2023-02-27T08:17:30.997Z,56.0
2023-02-27T08:18:18.522Z,56.3
2023-02-27T08:19:05.849Z,56.5
2023-02-27T08:19:53.276Z,56.4
2023-02-27T08:20:40.639Z,56.4
2023-02-27T08:21:28.246Z,56.2
2023-02-27T08:22:15.817Z,56.4
2023-02-27T08:23:03.421Z,56.4
2023-02-27T08:23:50.798Z,56.2
2023-02-27T08:24:38.172Z,56.5
2023-02-27T08:25:25.502Z,56.4
2023-02-27T08:26:12.803Z,56.8
2023-02-27T08:27:00.139Z,56.8
2023-02-27T08:27:47.630Z,56.8
2023-02-27T08:28:34.940Z,56.4
2023-02-27T08:29:22.257Z,56.4
2023-02-27T08:30:09.702Z,56.5
2023-02-27T08:30:57.211Z,56.3
2023-02-27T08:31:44.757Z,56.6
2023-02-27T08:32:32.249Z,56.2
2023-02-27T08:33:19.651Z,56.3
2023-02-27T08:34:10.490Z,56.9
2023-02-27T08:34:58.210Z,57.2
2023-02-27T08:35:45.688Z,56.4
2023-02-27T08:36:33.048Z,57.0
2023-02-27T08:37:20.401Z,55.9
2023-02-27T08:38:07.844Z,56.0
2023-02-27T08:38:55.158Z,55.6
2023-02-27T08:39:42.484Z,56.2
2023-02-27T08:40:29.887Z,56.3
2023-02-27T08:41:17.217Z,56.0
2023-02-27T08:42:04.545Z,56.3
2023-02-27T08:42:51.989Z,56.0
2023-02-27T08:43:39.335Z,56.0
2023-02-27T08:44:26.665Z,56.1
2023-02-27T08:45:14.130Z,56.6
2023-02-27T08:46:01.519Z,57.0
2023-02-27T08:46:48.897Z,56.7
2023-02-27T08:47:36.451Z,56.8
2023-02-27T08:48:23.769Z,56.7
2023-02-27T08:49:11.126Z,56.0
2023-02-27T08:49:58.532Z,56.6
2023-02-27T08:50:45.859Z,56.6
2023-02-27T08:51:33.201Z,56.5
2023-02-27T08:52:21.694Z,56.5
2023-02-27T08:53:09.734Z,56.5
2023-02-27T08:53:57.069Z,56.4
2023-02-27T08:54:44.398Z,56.7
2023-02-27T08:55:31.724Z,57.0
2023-02-27T08:56:19.067Z,57.2
2023-02-27T08:57:06.399Z,56.8
2023-02-27T08:57:53.734Z,56.1
2023-02-27T08:58:41.068Z,56.6
2023-02-27T08:59:28.389Z,56.7
2023-02-27T09:00:15.764Z,56.9
2023-02-27T09:01:03.193Z,56.4
2023-02-27T09:01:50.763Z,57.0
2023-02-27T09:02:38.134Z,56.6
2023-02-27T09:03:25.451Z,56.7
2023-02-27T09:04:12.811Z,56.6
2023-02-27T09:05:00.147Z,56.8
2023-02-27T09:05:47.499Z,56.8
2023-02-27T09:06:34.864Z,56.9
2023-02-27T09:07:22.204Z,56.8
2023-02-27T09:08:09.610Z,56.8
2023-02-27T09:08:56.946Z,56.8
2023-02-27T09:09:44.458Z,56.5
2023-02-27T09:10:31.793Z,56.5
2023-02-27T09:11:19.151Z,56.5
2023-02-27T09:12:06.465Z,56.6
2023-02-27T09:12:53.984Z,56.4
2023-02-27T09:13:41.331Z,56.2
2023-02-27T09:14:28.789Z,55.9
2023-02-27T09:15:16.104Z,56.3
2023-02-27T09:16:03.476Z,56.3
2023-02-27T09:16:50.912Z,56.4
2023-02-27T09:17:38.340Z,56.5
2023-02-27T09:18:25.748Z,55.8
2023-02-27T09:19:13.083Z,56.1
2023-02-27T09:20:00.477Z,55.9
2023-02-27T09:20:47.902Z,55.8
2023-02-27T09:21:35.259Z,56.2
2023-02-27T09:22:22.579Z,56.0
2023-02-27T09:23:10.139Z,55.5
2023-02-27T09:23:58.045Z,56.1
2023-02-27T09:24:46.578Z,56.3
2023-02-27T09:25:33.909Z,56.1
2023-02-27T09:26:28.951Z,56.5
2023-02-27T09:27:18.599Z,57.0
2023-02-27T09:28:06.190Z,56.5
2023-02-27T09:28:53.507Z,56.7
2023-02-27T09:29:40.825Z,56.1
2023-02-27T09:30:28.280Z,56.5
2023-02-27T09:31:15.711Z,56.3
2023-02-27T09:32:03.202Z,56.0
2023-02-27T09:32:50.934Z,56.4
2023-02-27T09:33:38.554Z,56.4
2023-02-27T09:34:25.897Z,56.3
2023-02-27T09:35:13.211Z,56.5
2023-02-27T09:36:00.753Z,56.7
2023-02-27T09:36:48.101Z,56.7
2023-02-27T09:37:35.996Z,56.6
2023-02-27T09:38:23.320Z,56.9
2023-02-27T09:39:10.920Z,57.0
2023-02-27T09:39:58.286Z,57.0
2023-02-27T09:40:45.670Z,57.0
2023-02-27T09:41:33.078Z,56.8
2023-02-27T09:42:20.442Z,57.2
2023-02-27T09:43:07.997Z,56.8
2023-02-27T09:43:55.411Z,56.7
2023-02-27T09:44:47.466Z,56.8
2023-02-27T09:45:34.969Z,57.2
2023-02-27T09:46:22.371Z,57.0
2023-02-27T09:47:09.688Z,57.3
2023-02-27T09:47:57.050Z,57.4
2023-02-27T09:48:44.389Z,57.3
2023-02-27T09:49:31.804Z,56.8
2023-02-27T09:50:19.218Z,56.9
2023-02-27T09:51:06.580Z,57.0
2023-02-27T09:51:53.947Z,57.0
2023-02-27T09:52:41.351Z,56.9
2023-02-27T09:53:28.765Z,57.0
2023-02-27T09:54:16.185Z,56.4
2023-02-27T09:55:03.788Z,56.7
2023-02-27T09:55:51.179Z,56.1
2023-02-27T09:56:38.668Z,56.6
2023-02-27T09:57:25.979Z,56.6
2023-02-27T09:58:13.298Z,56.4
2023-02-27T09:59:01.196Z,56.6
2023-02-27T09:59:48.532Z,56.7
2023-02-27T10:00:35.895Z,57.1
2023-02-27T10:01:23.226Z,57.0
2023-02-27T10:02:10.585Z,57.3
2023-02-27T10:02:57.972Z,56.7
2023-02-27T10:03:45.332Z,56.7
2023-02-27T10:04:32.687Z,56.9
2023-02-27T10:05:20.052Z,57.1
2023-02-27T10:06:07.437Z,57.1
2023-02-27T10:06:54.766Z,57.1
2023-02-27T10:07:42.117Z,57.2
2023-02-27T10:08:29.433Z,56.9
2023-02-27T10:09:16.751Z,56.8
2023-02-27T10:10:04.152Z,56.9
2023-02-27T10:10:51.471Z,56.7
2023-02-27T10:11:38.781Z,57.1
2023-02-27T10:12:26.178Z,57.1
2023-02-27T10:13:13.497Z,57.5
2023-02-27T10:14:00.839Z,58.1
2023-02-27T10:14:48.227Z,58.1
2023-02-27T10:15:35.717Z,57.8
2023-02-27T10:16:23.094Z,57.8
2023-02-27T10:17:10.451Z,57.1
2023-02-27T10:17:57.901Z,56.8
2023-02-27T10:18:45.256Z,57.2
2023-02-27T10:19:32.588Z,57.1
2023-02-27T10:20:20.158Z,56.8
2023-02-27T10:21:07.524Z,56.9
2023-02-27T10:21:55.080Z,56.4
2023-02-27T10:22:42.432Z,56.9
2023-02-27T10:23:29.836Z,56.9
2023-02-27T10:24:17.167Z,57.0
2023-02-27T10:25:04.813Z,57.3
2023-02-27T10:25:52.137Z,57.0
2023-02-27T10:26:39.483Z,56.8
2023-02-27T10:27:26.815Z,57.0
2023-02-27T10:28:14.150Z,57.8
2023-02-27T10:29:01.517Z,57.2
2023-02-27T10:29:48.843Z,56.6
2023-02-27T10:30:36.396Z,56.8
2023-02-27T10:31:24.035Z,57.2
2023-02-27T10:32:11.501Z,57.2
2023-02-27T10:32:59.039Z,57.7
2023-02-27T10:33:46.370Z,57.9
2023-02-27T10:34:33.705Z,57.5
2023-02-27T10:35:21.045Z,58.0
2023-02-27T10:36:08.423Z,58.0
2023-02-27T10:36:55.869Z,57.8
2023-02-27T10:37:43.311Z,58.4
2023-02-27T10:38:30.755Z,58.1
2023-02-27T10:39:18.163Z,58.0
2023-02-27T10:40:05.507Z,58.7
2023-02-27T10:40:52.837Z,58.8
2023-02-27T10:41:40.193Z,58.5
2023-02-27T10:42:27.512Z,58.6
2023-02-27T10:43:14.892Z,58.1
2023-02-27T10:44:02.224Z,57.9
2023-02-27T10:44:49.546Z,57.8
2023-02-27T10:45:38.851Z,57.6
2023-02-27T10:46:26.878Z,57.6
2023-02-27T10:47:14.520Z,57.9
2023-02-27T10:48:01.971Z,57.6
2023-02-27T10:48:49.302Z,57.8
2023-02-27T10:49:36.843Z,58.1
2023-02-27T10:50:24.228Z,58.7
2023-02-27T10:51:11.583Z,59.4
2023-02-27T10:51:59.023Z,59.2
2023-02-27T10:52:46.383Z,59.4
2023-02-27T10:53:33.708Z,58.7
2023-02-27T10:54:21.037Z,58.9
2023-02-27T10:55:08.467Z,58.5
2023-02-27T10:55:55.884Z,58.4
2023-02-27T10:56:43.276Z,61.1
2023-02-27T10:57:30.800Z,59.1
2023-02-27T10:58:18.646Z,58.3
2023-02-27T10:59:06.030Z,58.4
2023-02-27T10:59:53.472Z,58.5
2023-02-27T11:00:40.874Z,57.7
2023-02-27T11:01:30.662Z,58.1
2023-02-27T11:02:18.027Z,58.1
2023-02-27T11:03:05.552Z,57.5
2023-02-27T11:03:53.219Z,57.6
2023-02-27T11:04:40.604Z,57.7
2023-02-27T11:05:28.633Z,58.5
2023-02-27T11:06:16.000Z,59.6
2023-02-27T11:07:03.413Z,58.3
2023-02-27T11:07:50.760Z,58.2
2023-02-27T11:08:38.135Z,58.2
2023-02-27T11:09:25.520Z,58.2
2023-02-27T11:10:12.846Z,58.1
2023-02-27T11:11:00.526Z,57.8
2023-02-27T11:11:47.877Z,57.8
2023-02-27T11:12:35.393Z,57.7
2023-02-27T11:13:24.177Z,58.1
2023-02-27T11:14:11.638Z,58.1
2023-02-27T11:14:59.149Z,57.6
2023-02-27T11:15:47.054Z,58.6
2023-02-27T11:16:34.404Z,58.1
2023-02-27T11:17:21.870Z,58.2
2023-02-27T11:18:09.213Z,57.7
2023-02-27T11:18:56.600Z,58.1
2023-02-27T11:19:44.195Z,58.1
2023-02-27T11:20:31.495Z,57.8
2023-02-27T11:21:18.929Z,57.0
2023-02-27T11:22:06.339Z,58.2
2023-02-27T11:22:53.836Z,58.3
2023-02-27T11:23:41.178Z,58.6
2023-02-27T11:24:28.732Z,58.6
2023-02-27T11:25:16.059Z,58.0
2023-02-27T11:26:03.577Z,58.4
2023-02-27T11:26:50.900Z,58.1
2023-02-27T11:27:38.613Z,57.9
2023-02-27T11:28:25.957Z,58.4
2023-02-27T11:29:13.486Z,58.8
2023-02-27T11:30:00.834Z,58.9
2023-02-27T11:30:48.274Z,58.3
2023-02-27T11:31:35.645Z,58.4
2023-02-27T11:32:22.984Z,58.3
2023-02-27T11:33:10.394Z,58.5
2023-02-27T11:33:57.781Z,59.1
2023-02-27T11:34:45.137Z,58.7
2023-02-27T11:35:32.524Z,57.8
2023-02-27T11:36:19.933Z,59.4
2023-02-27T11:37:07.327Z,60.0
2023-02-27T11:37:54.648Z,60.2
2023-02-27T11:38:42.110Z,59.0
2023-02-27T11:39:29.439Z,59.2
2023-02-27T11:40:16.846Z,58.7
2023-02-27T11:41:04.229Z,58.1
2023-02-27T11:41:51.637Z,57.6
2023-02-27T11:42:39.095Z,57.6
2023-02-27T11:43:26.426Z,59.2
2023-02-27T11:44:13.740Z,58.4
2023-02-27T11:45:01.070Z,57.7
2023-02-27T11:46:13.250Z,58.5
2023-02-27T11:46:48.166Z,58.4
2023-02-27T11:47:36.235Z,58.2
2023-02-27T11:48:23.607Z,58.2
2023-02-27T11:49:10.967Z,58.5
2023-02-27T11:49:58.345Z,58.2
2023-02-27T11:50:45.958Z,58.3
2023-02-27T11:51:33.672Z,58.2
2023-02-27T11:52:21.419Z,58.2
2023-02-27T11:53:08.907Z,57.5
2023-02-27T11:53:56.798Z,58.1
2023-02-27T11:54:44.110Z,57.6
2023-02-27T11:55:31.661Z,58.0
2023-02-27T11:56:19.160Z,57.7
2023-02-27T11:57:06.504Z,58.1
2023-02-27T11:57:54.101Z,58.0
2023-02-27T11:58:41.803Z,58.1
2023-02-27T11:59:29.155Z,57.7
2023-02-27T12:00:16.538Z,58.1
2023-02-27T12:01:04.089Z,58.0
2023-02-27T12:01:51.491Z,57.9
2023-02-27T12:02:39.423Z,58.4
2023-02-27T12:03:26.931Z,58.6
2023-02-27T12:04:14.368Z,60.3
2023-02-27T12:05:01.851Z,60.1
2023-02-27T12:05:49.231Z,60.7
2023-02-27T12:06:36.581Z,60.9
2023-02-27T12:07:23.904Z,60.8
2023-02-27T12:08:11.382Z,60.8
2023-02-27T12:08:58.690Z,60.6
2023-02-27T12:09:46.024Z,58.0
2023-02-27T12:10:33.445Z,57.8
2023-02-27T12:11:20.937Z,58.1
2023-02-27T12:12:08.287Z,57.5
2023-02-27T12:12:55.726Z,60.2
2023-02-27T12:13:43.234Z,60.5
2023-02-27T12:14:30.616Z,60.2
2023-02-27T12:15:18.033Z,60.0
2023-02-27T12:16:05.354Z,59.1
2023-02-27T12:16:52.704Z,58.6
2023-02-27T12:17:40.106Z,59.5
2023-02-27T12:18:27.488Z,59.6
2023-02-27T12:19:14.823Z,60.1
2023-02-27T12:20:02.250Z,60.0
2023-02-27T12:20:49.566Z,60.2
2023-02-27T12:21:36.888Z,60.2
2023-02-27T12:22:24.302Z,59.7
2023-02-27T12:23:11.798Z,60.5
2023-02-27T12:23:59.133Z,59.6
2023-02-27T12:24:46.569Z,59.5
2023-02-27T12:25:33.925Z,60.3
2023-02-27T12:26:21.285Z,60.5
2023-02-27T12:27:08.738Z,60.3
2023-02-27T12:27:56.042Z,60.1
2023-02-27T12:28:43.842Z,59.9
2023-02-27T12:29:31.489Z,59.9
2023-02-27T12:30:18.844Z,59.0
2023-02-27T12:31:06.252Z,59.8
2023-02-27T12:31:53.714Z,60.0
2023-02-27T12:32:41.183Z,60.0
2023-02-27T12:33:28.544Z,60.2
2023-02-27T12:34:16.193Z,60.0
2023-02-27T12:35:03.513Z,60.0
2023-02-27T12:35:50.984Z,60.0
2023-02-27T12:36:38.383Z,60.2
2023-02-27T12:37:25.774Z,60.1
2023-02-27T12:38:13.157Z,60.0
2023-02-27T12:39:00.501Z,60.0
2023-02-27T12:39:47.906Z,60.1
2023-02-27T12:40:35.210Z,60.1
2023-02-27T12:41:22.557Z,60.3
2023-02-27T12:42:09.991Z,60.0
2023-02-27T12:42:57.351Z,60.0
2023-02-27T12:43:44.703Z,59.7
2023-02-27T12:44:32.110Z,59.6
2023-02-27T12:45:19.426Z,59.6
2023-02-27T12:46:06.816Z,59.9
2023-02-27T12:46:54.182Z,59.5
2023-02-27T12:47:41.561Z,59.6
2023-02-27T12:48:28.880Z,59.6
2023-02-27T12:49:16.318Z,59.5
2023-02-27T12:50:03.650Z,59.7
2023-02-27T12:50:50.988Z,59.1
2023-02-27T12:51:38.412Z,59.4
2023-02-27T12:52:25.727Z,59.1
2023-02-27T12:53:13.051Z,59.6
2023-02-27T12:54:00.477Z,59.5
2023-02-27T12:54:48.014Z,59.2
2023-02-27T12:55:35.364Z,59.3
2023-02-27T12:56:22.827Z,59.2
2023-02-27T12:57:10.248Z,59.1
2023-02-27T12:57:57.567Z,58.8
2023-02-27T12:58:45.008Z,59.1
2023-02-27T12:59:32.336Z,59.1
2023-02-27T13:00:19.780Z,59.1
2023-02-27T13:01:07.171Z,59.4
2023-02-27T13:01:54.525Z,59.2
2023-02-27T13:02:41.869Z,58.9
2023-02-27T13:03:29.309Z,59.1
2023-02-27T13:04:16.702Z,59.2
2023-02-27T13:05:04.040Z,59.1
2023-02-27T13:05:51.499Z,59.2
2023-02-27T13:06:39.007Z,59.1
2023-02-27T13:07:26.381Z,59.3
2023-02-27T13:08:13.797Z,59.0
2023-02-27T13:09:01.133Z,59.1
2023-02-27T13:09:48.758Z,59.0
2023-02-27T13:10:36.319Z,59.5
2023-02-27T13:11:23.893Z,59.1
2023-02-27T13:12:11.280Z,59.1
2023-02-27T13:12:58.641Z,59.3
2023-02-27T13:13:46.048Z,59.1
2023-02-27T13:14:33.412Z,59.3
2023-02-27T13:15:20.956Z,58.3
2023-02-27T13:16:08.400Z,58.7
2023-02-27T13:16:55.729Z,59.1
2023-02-27T13:17:43.054Z,59.2
2023-02-27T13:18:30.479Z,59.3
2023-02-27T13:19:18.214Z,59.0
2023-02-27T13:20:05.584Z,59.0
2023-02-27T13:20:52.985Z,58.9
2023-02-27T13:21:40.305Z,59.1
2023-02-27T13:22:27.628Z,59.0
2023-02-27T13:23:15.076Z,58.9
2023-02-27T13:24:02.381Z,58.6
2023-02-27T13:24:50.601Z,58.2
2023-02-27T13:25:37.952Z,58.3
2023-02-27T13:26:25.386Z,57.9
2023-02-27T13:27:12.708Z,57.8
2023-02-27T13:28:00.030Z,57.8
2023-02-27T13:28:47.447Z,57.5
2023-02-27T13:29:35.005Z,57.4
2023-02-27T13:30:22.387Z,57.6
2023-02-27T13:31:09.784Z,57.6
2023-02-27T13:31:57.221Z,57.4
2023-02-27T13:32:44.947Z,57.8
2023-02-27T13:33:32.358Z,57.6
2023-02-27T13:34:19.734Z,57.6
2023-02-27T13:35:07.060Z,57.6
2023-02-27T13:35:54.480Z,58.0
2023-02-27T13:36:41.891Z,57.5
2023-02-27T13:37:29.271Z,57.5
2023-02-27T13:38:16.703Z,57.8
2023-02-27T13:39:06.843Z,57.5
2023-02-27T13:39:54.147Z,57.5
2023-02-27T13:40:41.482Z,57.7
2023-02-27T13:41:29.073Z,57.2
2023-02-27T13:42:16.573Z,57.5
2023-02-27T13:43:03.965Z,57.0
2023-02-27T13:43:52.773Z,56.8
2023-02-27T13:44:40.318Z,56.9
2023-02-27T13:45:27.938Z,57.3
2023-02-27T13:46:15.715Z,57.6
2023-02-27T13:47:03.091Z,57.1
2023-02-27T13:47:50.507Z,57.5
2023-02-27T13:48:37.861Z,57.3
2023-02-27T13:49:29.511Z,57.4
2023-02-27T13:50:17.398Z,57.1
2023-02-27T13:51:04.851Z,57.3
2023-02-27T13:51:52.174Z,57.0
2023-02-27T13:52:39.503Z,57.0
2023-02-27T13:53:26.974Z,57.2
2023-02-27T13:54:14.384Z,57.5
2023-02-27T13:55:11.335Z,57.4
2023-02-27T13:55:59.191Z,57.5
2023-02-27T13:56:46.611Z,56.9
2023-02-27T13:57:33.927Z,57.3
2023-02-27T13:58:21.252Z,57.3
2023-02-27T13:59:08.691Z,57.0
2023-02-27T13:59:55.995Z,57.1
2023-02-27T14:00:43.312Z,56.7
2023-02-27T14:01:31.274Z,57.1
2023-02-27T14:02:18.820Z,57.1
2023-02-27T14:03:06.208Z,57.3
2023-02-27T14:03:53.537Z,57.3
2023-02-27T14:04:40.958Z,57.3
2023-02-27T14:05:28.412Z,56.8
2023-02-27T14:06:15.711Z,56.8
2023-02-27T14:07:03.151Z,56.8
2023-02-27T14:07:50.462Z,57.2
2023-02-27T14:08:37.778Z,56.9
2023-02-27T14:09:25.289Z,56.6
2023-02-27T14:10:12.770Z,56.6
2023-02-27T14:11:00.229Z,56.7
2023-02-27T14:11:47.673Z,56.5
2023-02-27T14:12:44.412Z,57.0
2023-02-27T14:13:32.312Z,57.4
2023-02-27T14:14:19.955Z,56.9
2023-02-27T14:15:07.294Z,57.2
2023-02-27T14:15:54.704Z,57.4
2023-02-27T14:16:42.135Z,56.9
2023-02-27T14:17:29.468Z,55.8
2023-02-27T14:18:32.237Z,57.0
2023-02-27T14:19:14.057Z,56.7
2023-02-27T14:20:01.487Z,56.8
2023-02-27T14:20:48.803Z,56.5
2023-02-27T14:21:36.142Z,56.5
2023-02-27T14:22:23.534Z,56.7
2023-02-27T14:23:10.877Z,56.2
2023-02-27T14:23:58.201Z,56.5
2023-02-27T14:25:00.000Z,57.0
2023-02-27T14:25:42.955Z,56.5
2023-02-27T14:26:30.345Z,56.8
2023-02-27T14:27:17.770Z,56.7
2023-02-27T14:28:05.580Z,56.5
2023-02-27T14:28:52.907Z,56.8
2023-02-27T14:29:40.210Z,56.7
2023-02-27T14:30:27.520Z,57.1
2023-02-27T14:31:14.894Z,56.9
2023-02-27T14:32:02.293Z,56.7
2023-02-27T14:32:49.610Z,56.9
2023-02-27T14:33:40.440Z,56.3
2023-02-27T14:34:28.241Z,56.7
2023-02-27T14:35:15.711Z,56.8
2023-02-27T14:36:03.119Z,56.2
2023-02-27T14:36:50.505Z,56.5
2023-02-27T14:37:37.852Z,56.7
2023-02-27T14:38:25.225Z,56.4
2023-02-27T14:39:12.865Z,56.8
2023-02-27T14:40:02.871Z,56.2
2023-02-27T14:40:50.450Z,56.4
2023-02-27T14:41:37.875Z,56.8
2023-02-27T14:42:25.433Z,56.8
2023-02-27T14:43:12.795Z,56.8
2023-02-27T14:44:00.153Z,56.5
2023-02-27T14:44:47.480Z,56.6
2023-02-27T14:45:34.793Z,56.9
2023-02-27T14:46:22.303Z,56.8
2023-02-27T14:47:09.660Z,56.4
2023-02-27T14:47:56.986Z,56.6
2023-02-27T14:48:44.413Z,56.3
2023-02-27T14:49:31.751Z,56.6
2023-02-27T14:50:19.081Z,56.4
2023-02-27T14:51:06.495Z,56.8
2023-02-27T14:51:53.840Z,57.0
2023-02-27T14:52:41.176Z,56.4
2023-02-27T14:53:28.548Z,56.9
2023-02-27T14:54:15.892Z,56.8
2023-02-27T14:55:03.317Z,56.7
2023-02-27T14:55:50.625Z,56.4
2023-02-27T14:56:38.171Z,56.6
2023-02-27T14:57:26.774Z,56.7
2023-02-27T14:58:14.388Z,56.3
2023-02-27T14:59:04.501Z,56.8
2023-02-27T14:59:52.344Z,56.7
2023-02-27T15:00:39.678Z,56.3
2023-02-27T15:01:27.373Z,56.5
2023-02-27T15:02:14.927Z,56.4
2023-02-27T15:03:02.351Z,56.4
2023-02-27T15:03:49.768Z,56.4
2023-02-27T15:04:37.147Z,56.2
2023-02-27T15:05:24.696Z,56.3
2023-02-27T15:06:12.018Z,56.5
2023-02-27T15:06:59.358Z,56.9
2023-02-27T15:07:46.778Z,55.9
2023-02-27T15:08:34.109Z,56.2
2023-02-27T15:09:21.440Z,56.6
2023-02-27T15:10:08.866Z,56.1
2023-02-27T15:10:56.262Z,56.5
2023-02-27T15:11:51.256Z,56.2
2023-02-27T15:12:40.886Z,56.6
2023-02-27T15:13:28.397Z,56.1
2023-02-27T15:14:15.735Z,56.3
2023-02-27T15:15:03.102Z,56.2
2023-02-27T15:15:50.973Z,56.0
2023-02-27T15:16:38.890Z,56.2
2023-02-27T15:17:26.505Z,56.0